Upland, California
Current Conditions -  °F | °C
As of 6:53 PM on Sunday 23 Nov 2014 (Local Time) from KONT Reporting Station
Broken Clouds Broken Clouds  
Wind Chill: 63°   Ceiling: 22000
Heat Index: 63°   Visibility: 10mi
Dew Point:   Wind: 7mph
Humidity: 10%   Direction: 310°NW
Pressure: 30.12"   Gusts: NA
Location:  34.1°N, 117.65°W
Report Text: KONT 240253Z 31006KT 10SM BKN220 17/M16 A3012 RMK AO2 SLP192 T01721156 51015
Loading
Personal Weather Stations






























Interactive Weather Map New forecast layout! Learn more

10-Day Weather Forecast

Advertisements
Track Severe Weather on mobile